sensor_id;sensor_type;location;lat;lon;timestamp;pressure;altitude;pressure_sealevel;temperature;humidity
17950;BME280;9100;48.700;9.316;2023-03-04T00:00:39;98265.8;;;4.77;100
17950;BME280;9100;48.700;9.316;2023-03-04T00:01:38;98270;;;4.77;100
17950;BME280;9100;48.700;9.316;2023-03-04T00:02:37;98264.4;;;4.73;100
17950;BME280;9100;48.700;9.316;2023-03-04T00:03:05;98267.1;;;4.72;100
17950;BME280;9100;48.700;9.316;2023-03-04T00:03:38;98254.2;;;4.64;100
17950;BME280;9100;48.700;9.316;2023-03-04T00:04:38;98275.5;;;4.72;100
17950;BME280;9100;48.700;9.316;2023-03-04T00:05:38;98268.8;;;4.71;100
17950;BME280;9100;48.700;9.316;2023-03-04T00:06:37;98276.5;;;4.7;100
17950;BME280;9100;48.700;9.316;2023-03-04T00:07:38;98275.09999999999;;;4.67;100
17950;BME280;9100;48.700;9.316;2023-03-04T00:08:05;98273.40000000001;;;4.66;100
17950;BME280;9100;48.700;9.316;2023-03-04T00:08:38;98271.8;;;4.65;100
17950;BME280;9100;48.700;9.316;2023-03-04T00:09:38;98275.2;;;4.66;100
17950;BME280;9100;48.700;9.316;2023-03-04T00:10:38;98282.9;;;4.64;100
17950;BME280;9100;48.700;9.316;2023-03-04T00:11:38;98277.8;;;4.64;100
17950;BME280;9100;48.700;9.316;2023-03-04T00:12:38;98281.2;;;4.65;100
17950;BME280;9100;48.700;9.316;2023-03-04T00:13:05;98277.8;;;4.64;100
17950;BME280;9100;48.700;9.316;2023-03-04T00:13:37;98273.6;;;4.65;100
17950;BME280;9100;48.700;9.316;2023-03-04T00:14:38;98279.4;;;4.65;100
17950;BME280;9100;48.700;9.316;2023-03-04T00:15:38;98273.29999999999;;;4.68;100
17950;BME280;9100;48.700;9.316;2023-03-04T00:16:37;98275.40000000001;;;4.63;100
17950;BME280;9100;48.700;9.316;2023-03-04T00:17:37;98275.59999999999;;;4.61;100
17950;BME280;9100;48.700;9.316;2023-03-04T00:18:05;98277.4;;;4.59;100
17950;BME280;9100;48.700;9.316;2023-03-04T00:18:38;98268.1;;;4.6;100
17950;BME280;9100;48.700;9.316;2023-03-04T00:19:37;98250.09999999999;;;4.42;100
17950;BME280;9100;48.700;9.316;2023-03-04T00:20:38;98274;;;4.6;100
17950;BME280;9100;48.700;9.316;2023-03-04T00:21:37;98275.8;;;4.58;100
17950;BME280;9100;48.700;9.316;2023-03-04T00:22:38;98276.09999999999;;;4.55;100
17950;BME280;9100;48.700;9.316;2023-03-04T00:23:06;98269.5;;;4.53;100
17950;BME280;9100;48.700;9.316;2023-03-04T00:23:37;98272.1;;;4.53;100
17950;BME280;9100;48.700;9.316;2023-03-04T00:24:38;98270.4;;;4.52;100
17950;BME280;9100;48.700;9.316;2023-03-04T00:25:38;98269.6;;;4.51;100
17950;BME280;9100;48.700;9.316;2023-03-04T00:26:38;98274.7;;;4.51;100
17950;BME280;9100;48.700;9.316;2023-03-04T00:27:38;98274;;;4.49;100
17950;BME280;9100;48.700;9.316;2023-03-04T00:28:05;98274;;;4.49;100
17950;BME280;9100;48.700;9.316;2023-03-04T00:28:38;98264.70000000001;;;4.5;100
17950;BME280;9100;48.700;9.316;2023-03-04T00:29:38;98265.7;;;4.47;100
17950;BME280;9100;48.700;9.316;2023-03-04T00:30:38;98271.5;;;4.49;100
17950;BME280;9100;48.700;9.316;2023-03-04T00:31:38;98268.3;;;4.47;100
17950;BME280;9100;48.700;9.316;2023-03-04T00:32:38;98262.3;;;4.48;100
17950;BME280;9100;48.700;9.316;2023-03-04T00:33:05;98268.3;;;4.47;100
17950;BME280;9100;48.700;9.316;2023-03-04T00:33:38;98264.8;;;4.48;100
17950;BME280;9100;48.700;9.316;2023-03-04T00:34:38;98263.2;;;4.47;100
17950;BME280;9100;48.700;9.316;2023-03-04T00:35:38;98266.4;;;4.49;100
17950;BME280;9100;48.700;9.316;2023-03-04T00:36:38;98266.4;;;4.49;100
17950;BME280;9100;48.700;9.316;2023-03-04T00:37:37;98258.8;;;4.39;100
17950;BME280;9100;48.700;9.316;2023-03-04T00:38:05;98269.3;;;4.45;100
17950;BME280;9100;48.700;9.316;2023-03-04T00:38:37;98265.9;;;4.46;100
17950;BME280;9100;48.700;9.316;2023-03-04T00:39:38;98265.09999999999;;;4.45;100
17950;BME280;9100;48.700;9.316;2023-03-04T00:40:38;98268.5;;;4.44;100
17950;BME280;9100;48.700;9.316;2023-03-04T00:41:38;98264.59999999999;;;4.4;100
17950;BME280;9100;48.700;9.316;2023-03-04T00:42:38;98269.8;;;4.38;100
17950;BME280;9100;48.700;9.316;2023-03-04T00:43:05;98269;;;4.38;100
17950;BME280;9100;48.700;9.316;2023-03-04T00:43:39;98267.2;;;4.4;100
17950;BME280;9100;48.700;9.316;2023-03-04T00:44:38;98269.7;;;4.4;100
17950;BME280;9100;48.700;9.316;2023-03-04T00:45:38;98270.7;;;4.39;100
17950;BME280;9100;48.700;9.316;2023-03-04T00:46:37;98272.40000000001;;;4.38;100
17950;BME280;9100;48.700;9.316;2023-03-04T00:47:38;98247;;;4.19;100
17950;BME280;9100;48.700;9.316;2023-03-04T00:48:06;98272.5;;;4.37;100
17950;BME280;9100;48.700;9.316;2023-03-04T00:48:37;98273.40000000001;;;4.36;100
17950;BME280;9100;48.700;9.316;2023-03-04T00:49:37;98279.2;;;4.38;100
17950;BME280;9100;48.700;9.316;2023-03-04T00:50:38;98277.59999999999;;;4.37;100
17950;BME280;9100;48.700;9.316;2023-03-04T00:51:38;98272.7;;;4.34;100
17950;BME280;9100;48.700;9.316;2023-03-04T00:52:38;98272.7;;;4.34;100
17950;BME280;9100;48.700;9.316;2023-03-04T00:53:05;98266.2;;;4.31;100
17950;BME280;9100;48.700;9.316;2023-03-04T00:53:38;98273.7;;;4.33;100
17950;BME280;9100;48.700;9.316;2023-03-04T00:54:38;98263.9;;;4.28;100
17950;BME280;9100;48.700;9.316;2023-03-04T00:55:38;98267.6;;;4.24;100
17950;BME280;9100;48.700;9.316;2023-03-04T00:56:38;98267.7;;;4.23;100
17950;BME280;9100;48.700;9.316;2023-03-04T00:57:38;98267.9;;;4.21;100
17950;BME280;9100;48.700;9.316;2023-03-04T00:58:05;98266.3;;;4.2;100
17950;BME280;9100;48.700;9.316;2023-03-04T00:58:38;98266.09999999999;;;4.22;100
17950;BME280;9100;48.700;9.316;2023-03-04T00:59:38;98272.1;;;4.21;100
17950;BME280;9100;48.700;9.316;2023-03-04T01:00:38;98266.4;;;4.19;100
17950;BME280;9100;48.700;9.316;2023-03-04T01:01:38;98267.3;;;4.18;100
17950;BME280;9100;48.700;9.316;2023-03-04T01:02:37;98263.3;;;4.15;100
17950;BME280;9100;48.700;9.316;2023-03-04T01:03:05;98261.7;;;4.14;100
17950;BME280;9100;48.700;9.316;2023-03-04T01:03:37;98266.9;;;4.13;100
17950;BME280;9100;48.700;9.316;2023-03-04T01:04:38;98261.1;;;4.11;100
17950;BME280;9100;48.700;9.316;2023-03-04T01:05:38;98263.7;;;4.11;100
17950;BME280;9100;48.700;9.316;2023-03-04T01:06:38;98260.5;;;4.09;100
17950;BME280;9100;48.700;9.316;2023-03-04T01:07:38;98257.9;;;4.09;100
17950;BME280;9100;48.700;9.316;2023-03-04T01:08:05;98268.1;;;4.09;100
17950;BME280;9100;48.700;9.316;2023-03-04T01:08:38;98264.59999999999;;;4.1;100
17950;BME280;9100;48.700;9.316;2023-03-04T01:09:38;98261.40000000001;;;4.08;100
17950;BME280;9100;48.700;9.316;2023-03-04T01:10:38;98264.59999999999;;;4.1;100
17950;BME280;9100;48.700;9.316;2023-03-04T01:11:38;98265.59999999999;;;4.07;100
17950;BME280;9100;48.700;9.316;2023-03-04T01:12:38;98258.90000000001;;;4.08;100
17950;BME280;9100;48.700;9.316;2023-03-04T01:13:05;98263.2;;;4.06;100
17950;BME280;9100;48.700;9.316;2023-03-04T01:13:38;98264;;;4.06;100
17950;BME280;9100;48.700;9.316;2023-03-04T01:14:38;98265.59999999999;;;4.07;100
17950;BME280;9100;48.700;9.316;2023-03-04T01:15:38;98262.3;;;4.07;100
17950;BME280;9100;48.700;9.316;2023-03-04T01:16:38;98260.79999999999;;;4.04;100
17950;BME280;9100;48.700;9.316;2023-03-04T01:17:38;98261.7;;;4.03;100
17950;BME280;9100;48.700;9.316;2023-03-04T01:18:06;98253.4;;;4.03;100
17950;BME280;9100;48.700;9.316;2023-03-04T01:18:38;98267;;;4.02;100
17950;BME280;9100;48.700;9.316;2023-03-04T01:19:38;98265.20000000001;;;4.02;100
17950;BME280;9100;48.700;9.316;2023-03-04T01:20:38;98268.5;;;4.03;100
17950;BME280;9100;48.700;9.316;2023-03-04T01:21:38;98258.4;;;4.03;100
17950;BME280;9100;48.700;9.316;2023-03-04T01:22:38;98260;;;4.04;100
17950;BME280;9100;48.700;9.316;2023-03-04T01:23:05;98259.2;;;4.03;100
17950;BME280;9100;48.700;9.316;2023-03-04T01:23:38;98255;;;4.04;100
17950;BME280;9100;48.700;9.316;2023-03-04T01:24:38;98259.1;;;4.05;100
17950;BME280;9100;48.700;9.316;2023-03-04T01:25:38;98258.2;;;4.06;100
17950;BME280;9100;48.700;9.316;2023-03-04T01:26:38;98255.8;;;4.04;100
17950;BME280;9100;48.700;9.316;2023-03-04T01:27:38;98254.2;;;4.03;100
17950;BME280;9100;48.700;9.316;2023-03-04T01:28:06;98255;;;4.04;100
17950;BME280;9100;48.700;9.316;2023-03-04T01:28:38;98258.4;;;4.03;100
17950;BME280;9100;48.700;9.316;2023-03-04T01:29:38;98249.90000000001;;;4.04;100
17950;BME280;9100;48.700;9.316;2023-03-04T01:30:38;98250;;;4.02;100
17950;BME280;9100;48.700;9.316;2023-03-04T01:31:38;98250;;;4.02;100
17950;BME280;9100;48.700;9.316;2023-03-04T01:32:38;98250.2;;;4.01;100
17950;BME280;9100;48.700;9.316;2023-03-04T01:33:05;98248.5;;;4;100
17950;BME280;9100;48.700;9.316;2023-03-04T01:33:38;98254.4;;;4;100
17950;BME280;9100;48.700;9.316;2023-03-04T01:34:38;98246.90000000001;;;3.99;100
17950;BME280;9100;48.700;9.316;2023-03-04T01:35:38;98252.9;;;3.98;100
17950;BME280;9100;48.700;9.316;2023-03-04T01:36:38;98251.4;;;3.95;100
17950;BME280;9100;48.700;9.316;2023-03-04T01:37:37;98250;;;3.93;100
17950;BME280;9100;48.700;9.316;2023-03-04T01:38:05;98246.8;;;3.9;100
17950;BME280;9100;48.700;9.316;2023-03-04T01:38:38;98249.40000000001;;;3.89;100
17950;BME280;9100;48.700;9.316;2023-03-04T01:39:38;98253.7;;;3.88;100
17950;BME280;9100;48.700;9.316;2023-03-04T01:40:38;98253;;;3.86;100
17950;BME280;9100;48.700;9.316;2023-03-04T01:41:39;98251.3;;;3.87;100
17950;BME280;9100;48.700;9.316;2023-03-04T01:42:38;98246.3;;;3.85;100
17950;BME280;9100;48.700;9.316;2023-03-04T01:43:05;98247.2;;;3.84;100
17950;BME280;9100;48.700;9.316;2023-03-04T01:43:38;98246.6;;;3.82;100
17950;BME280;9100;48.700;9.316;2023-03-04T01:44:38;98246.6;;;3.82;100
17950;BME280;9100;48.700;9.316;2023-03-04T01:45:38;98243.3;;;3.8;100
17950;BME280;9100;48.700;9.316;2023-03-04T01:46:38;98240.09999999999;;;3.78;100
17950;BME280;9100;48.700;9.316;2023-03-04T01:47:38;98250.5;;;3.75;100
17950;BME280;9100;48.700;9.316;2023-03-04T01:48:07;98247.29999999999;;;3.73;100
17950;BME280;9100;48.700;9.316;2023-03-04T01:48:38;98239;;;3.71;100
17950;BME280;9100;48.700;9.316;2023-03-04T01:49:38;98245.9;;;3.69;100
17950;BME280;9100;48.700;9.316;2023-03-04T01:50:38;98250.3;;;3.67;100
17950;BME280;9100;48.700;9.316;2023-03-04T01:51:38;98250.3;;;3.67;100
17950;BME280;9100;48.700;9.316;2023-03-04T01:52:38;98254.5;;;3.68;100
17950;BME280;9100;48.700;9.316;2023-03-04T01:53:05;98249.59999999999;;;3.65;100
17950;BME280;9100;48.700;9.316;2023-03-04T01:53:38;98247.79999999999;;;3.67;100
17950;BME280;9100;48.700;9.316;2023-03-04T01:54:38;98254.5;;;3.68;100
17950;BME280;9100;48.700;9.316;2023-03-04T01:55:38;98248.6;;;3.68;100
17950;BME280;9100;48.700;9.316;2023-03-04T01:56:38;98248.6;;;3.68;100
17950;BME280;9100;48.700;9.316;2023-03-04T01:57:38;98242.7;;;3.67;100
17950;BME280;9100;48.700;9.316;2023-03-04T01:58:06;98247.79999999999;;;3.67;100
17950;BME280;9100;48.700;9.316;2023-03-04T01:58:37;98247;;;3.67;100
17950;BME280;9100;48.700;9.316;2023-03-04T01:59:39;98246.90000000001;;;3.68;100
17950;BME280;9100;48.700;9.316;2023-03-04T02:00:38;98240.9;;;3.69;100
17950;BME280;9100;48.700;9.316;2023-03-04T02:01:38;98245.1;;;3.69;100
17950;BME280;9100;48.700;9.316;2023-03-04T02:02:38;98247.79999999999;;;3.67;100
17950;BME280;9100;48.700;9.316;2023-03-04T02:03:06;98240.20000000001;;;3.67;100
17950;BME280;9100;48.700;9.316;2023-03-04T02:03:38;98240.20000000001;;;3.67;100
17950;BME280;9100;48.700;9.316;2023-03-04T02:04:38;98238.5;;;3.68;100
17950;BME280;9100;48.700;9.316;2023-03-04T02:05:38;98247.1;;;3.65;100
17950;BME280;9100;48.700;9.316;2023-03-04T02:06:38;98233.8;;;3.63;100
17950;BME280;9100;48.700;9.316;2023-03-04T02:07:38;98233.2;;;3.6;100
17950;BME280;9100;48.700;9.316;2023-03-04T02:08:06;98235.79999999999;;;3.58;100
17950;BME280;9100;48.700;9.316;2023-03-04T02:08:38;98241.7;;;3.59;100
17950;BME280;9100;48.700;9.316;2023-03-04T02:09:38;98237.59999999999;;;3.58;100
17950;BME280;9100;48.700;9.316;2023-03-04T02:10:38;98238.4;;;3.58;100
17950;BME280;9100;48.700;9.316;2023-03-04T02:11:38;98238.4;;;3.58;100
17950;BME280;9100;48.700;9.316;2023-03-04T02:12:38;98243.4;;;3.58;100
17950;BME280;9100;48.700;9.316;2023-03-04T02:13:05;98230.8;;;3.58;100
17950;BME280;9100;48.700;9.316;2023-03-04T02:13:38;98232.5;;;3.58;100
17950;BME280;9100;48.700;9.316;2023-03-04T02:14:38;98168.3;;;3.17;100
17950;BME280;9100;48.700;9.316;2023-03-04T02:15:38;98236.8;;;3.57;100
17950;BME280;9100;48.700;9.316;2023-03-04T02:16:38;98237.7;;;3.56;100
17950;BME280;9100;48.700;9.316;2023-03-04T02:17:38;98232.6;;;3.56;100
17950;BME280;9100;48.700;9.316;2023-03-04T02:18:06;98239.4;;;3.56;100
17950;BME280;9100;48.700;9.316;2023-03-04T02:18:38;98231;;;3.55;100
17950;BME280;9100;48.700;9.316;2023-03-04T02:19:40;98237.7;;;3.56;100
17950;BME280;9100;48.700;9.316;2023-03-04T02:20:40;98238.59999999999;;;3.55;100
17950;BME280;9100;48.700;9.316;2023-03-04T02:21:38;98232.6;;;3.56;100
17950;BME280;9100;48.700;9.316;2023-03-04T02:22:39;98230.2;;;3.55;100
17950;BME280;9100;48.700;9.316;2023-03-04T02:23:06;98233.6;;;3.55;100
17950;BME280;9100;48.700;9.316;2023-03-04T02:23:39;98228.5;;;3.55;100
17950;BME280;9100;48.700;9.316;2023-03-04T02:24:40;98230.2;;;3.55;100
17950;BME280;9100;48.700;9.316;2023-03-04T02:25:39;98235.2;;;3.56;100
17950;BME280;9100;48.700;9.316;2023-03-04T02:26:38;98226.9;;;3.54;100
17950;BME280;9100;48.700;9.316;2023-03-04T02:27:38;98234.5;;;3.54;100
17950;BME280;9100;48.700;9.316;2023-03-04T02:28:05;98229;;;3.49;100
17950;BME280;9100;48.700;9.316;2023-03-04T02:28:38;98143.4;;;2.92;100
17950;BME280;9100;48.700;9.316;2023-03-04T02:29:38;98234.90000000001;;;3.5;100
17950;BME280;9100;48.700;9.316;2023-03-04T02:30:38;98235.90000000001;;;3.47;100
17950;BME280;9100;48.700;9.316;2023-03-04T02:31:38;98236;;;3.46;100
17950;BME280;9100;48.700;9.316;2023-03-04T02:32:38;98237.8;;;3.43;100
17950;BME280;9100;48.700;9.316;2023-03-04T02:33:05;98230.3;;;3.43;100
17950;BME280;9100;48.700;9.316;2023-03-04T02:33:38;98233.8;;;3.41;100
17950;BME280;9100;48.700;9.316;2023-03-04T02:34:39;98239.70000000001;;;3.41;100
17950;BME280;9100;48.700;9.316;2023-03-04T02:35:38;98238.09999999999;;;3.4;100
17950;BME280;9100;48.700;9.316;2023-03-04T02:36:38;98234;;;3.39;100
17950;BME280;9100;48.700;9.316;2023-03-04T02:37:38;98233.3;;;3.37;100
17950;BME280;9100;48.700;9.316;2023-03-04T02:38:05;98221.5;;;3.27;100
17950;BME280;9100;48.700;9.316;2023-03-04T02:38:38;98231.8;;;3.35;100
17950;BME280;9100;48.700;9.316;2023-03-04T02:39:39;98237.8;;;3.34;100
17950;BME280;9100;48.700;9.316;2023-03-04T02:40:38;98233.6;;;3.33;100
17950;BME280;9100;48.700;9.316;2023-03-04T02:41:38;98237.09999999999;;;3.32;100
17950;BME280;9100;48.700;9.316;2023-03-04T02:42:38;98235.6;;;3.29;100
17950;BME280;9100;48.700;9.316;2023-03-04T02:43:05;98233.1;;;3.29;100
17950;BME280;9100;48.700;9.316;2023-03-04T02:43:38;98233;;;3.31;100
17950;BME280;9100;48.700;9.316;2023-03-04T02:44:39;98240.5;;;3.31;100
17950;BME280;9100;48.700;9.316;2023-03-04T02:45:39;98239.70000000001;;;3.3;100
17950;BME280;9100;48.700;9.316;2023-03-04T02:46:38;98240.5;;;3.31;100
17950;BME280;9100;48.700;9.316;2023-03-04T02:47:38;98238.09999999999;;;3.29;100
17950;BME280;9100;48.700;9.316;2023-03-04T02:48:05;98238.2;;;3.28;100
17950;BME280;9100;48.700;9.316;2023-03-04T02:48:38;98238.2;;;3.28;100
17950;BME280;9100;48.700;9.316;2023-03-04T02:49:38;98234.3;;;3.24;100
17950;BME280;9100;48.700;9.316;2023-03-04T02:50:39;98243.7;;;3.23;100
17950;BME280;9100;48.700;9.316;2023-03-04T02:51:38;98231.4;;;3.19;100
17950;BME280;9100;48.700;9.316;2023-03-04T02:52:38;98238.3;;;3.17;100
17950;BME280;9100;48.700;9.316;2023-03-04T02:53:06;98239.3;;;3.14;100
17950;BME280;9100;48.700;9.316;2023-03-04T02:53:38;98239.3;;;3.14;100
17950;BME280;9100;48.700;9.316;2023-03-04T02:54:38;98246.1;;;3.14;100
17950;BME280;9100;48.700;9.316;2023-03-04T02:55:38;98233.7;;;3.11;100
17950;BME280;9100;48.700;9.316;2023-03-04T02:56:38;98237.8;;;3.12;100
17950;BME280;9100;48.700;9.316;2023-03-04T02:57:38;98152;;;2.56;100
17950;BME280;9100;48.700;9.316;2023-03-04T02:58:06;98234.6;;;3.1;100
17950;BME280;9100;48.700;9.316;2023-03-04T02:58:38;98237.09999999999;;;3.1;100
17950;BME280;9100;48.700;9.316;2023-03-04T02:59:38;98233.7;;;3.11;100
17950;BME280;9100;48.700;9.316;2023-03-04T03:00:38;98243;;;3.1;100
17950;BME280;9100;48.700;9.316;2023-03-04T03:01:38;98240.5;;;3.1;100
17950;BME280;9100;48.700;9.316;2023-03-04T03:02:38;98231.4;;;3.08;100
17950;BME280;9100;48.700;9.316;2023-03-04T03:03:05;98239;;;3.08;100
17950;BME280;9100;48.700;9.316;2023-03-04T03:03:38;98239;;;3.08;100
17950;BME280;9100;48.700;9.316;2023-03-04T03:04:38;98240.8;;;3.06;100
17950;BME280;9100;48.700;9.316;2023-03-04T03:05:38;98235.7;;;3.06;100
17950;BME280;9100;48.700;9.316;2023-03-04T03:06:38;98236.7;;;3.05;100
17950;BME280;9100;48.700;9.316;2023-03-04T03:07:38;98228;;;2.98;100
17950;BME280;9100;48.700;9.316;2023-03-04T03:08:06;98241;;;3.03;100
17950;BME280;9100;48.700;9.316;2023-03-04T03:08:38;98240.20000000001;;;3.02;100
17950;BME280;9100;48.700;9.316;2023-03-04T03:09:38;98237;;;3;100
17950;BME280;9100;48.700;9.316;2023-03-04T03:10:38;98246.3;;;3;100
17950;BME280;9100;48.700;9.316;2023-03-04T03:11:38;98240.5;;;2.99;100
17950;BME280;9100;48.700;9.316;2023-03-04T03:12:38;98244;;;2.97;100
17950;BME280;9100;48.700;9.316;2023-03-04T03:13:05;98241.5;;;2.97;100
17950;BME280;9100;48.700;9.316;2023-03-04T03:13:38;98247.5;;;2.96;100
17950;BME280;9100;48.700;9.316;2023-03-04T03:14:38;98240.7;;;2.96;100
17950;BME280;9100;48.700;9.316;2023-03-04T03:15:38;98239.9;;;2.96;100
17950;BME280;9100;48.700;9.316;2023-03-04T03:16:38;98254.2;;;2.95;100
17950;BME280;9100;48.700;9.316;2023-03-04T03:17:38;98236.7;;;2.93;100
17950;BME280;9100;48.700;9.316;2023-03-04T03:18:05;98247.7;;;2.92;100
17950;BME280;9100;48.700;9.316;2023-03-04T03:18:38;98242;;;2.9;100
17950;BME280;9100;48.700;9.316;2023-03-04T03:19:38;98238.8;;;2.88;100
17950;BME280;9100;48.700;9.316;2023-03-04T03:20:38;98241.4;;;2.87;100
17950;BME280;9100;48.700;9.316;2023-03-04T03:21:38;98238;;;2.88;100
17950;BME280;9100;48.700;9.316;2023-03-04T03:22:38;98244.9;;;2.86;100
17950;BME280;9100;48.700;9.316;2023-03-04T03:23:05;98242.4;;;2.84;100
17950;BME280;9100;48.700;9.316;2023-03-04T03:23:39;98248.29999999999;;;2.85;100
17950;BME280;9100;48.700;9.316;2023-03-04T03:24:38;98241.5;;;2.85;100
17950;BME280;9100;48.700;9.316;2023-03-04T03:25:38;98239.9;;;2.84;100
17950;BME280;9100;48.700;9.316;2023-03-04T03:26:38;98245.8;;;2.85;100
17950;BME280;9100;48.700;9.316;2023-03-04T03:27:38;98243.3;;;2.83;100
17950;BME280;9100;48.700;9.316;2023-03-04T03:28:05;98245.9;;;2.83;100
17950;BME280;9100;48.700;9.316;2023-03-04T03:28:38;98241.8;;;2.82;100
17950;BME280;9100;48.700;9.316;2023-03-04T03:29:38;98241.8;;;2.82;100
17950;BME280;9100;48.700;9.316;2023-03-04T03:30:38;98243.5;;;2.82;100
17950;BME280;9100;48.700;9.316;2023-03-04T03:31:38;98242.7;;;2.81;100
17950;BME280;9100;48.700;9.316;2023-03-04T03:32:38;98241.2;;;2.79;100
17950;BME280;9100;48.700;9.316;2023-03-04T03:33:05;98244.6;;;2.78;100
17950;BME280;9100;48.700;9.316;2023-03-04T03:33:38;98238.09999999999;;;2.75;100
17950;BME280;9100;48.700;9.316;2023-03-04T03:34:38;98236.5;;;2.74;100
17950;BME280;9100;48.700;9.316;2023-03-04T03:35:38;98241.4;;;2.76;100
17950;BME280;9100;48.700;9.316;2023-03-04T03:36:38;98242.3;;;2.75;100
17950;BME280;9100;48.700;9.316;2023-03-04T03:37:38;98240.8;;;2.72;100
17950;BME280;9100;48.700;9.316;2023-03-04T03:38:06;98240.7;;;2.74;100
17950;BME280;9100;48.700;9.316;2023-03-04T03:38:38;98242.3;;;2.75;100
17950;BME280;9100;48.700;9.316;2023-03-04T03:39:38;98244.1;;;2.74;100
17950;BME280;9100;48.700;9.316;2023-03-04T03:40:38;98244.1;;;2.74;100
17950;BME280;9100;48.700;9.316;2023-03-04T03:41:38;98239;;;2.74;100
17950;BME280;9100;48.700;9.316;2023-03-04T03:42:38;98241.5;;;2.74;100
17950;BME280;9100;48.700;9.316;2023-03-04T03:43:05;98236.5;;;2.74;100
17950;BME280;9100;48.700;9.316;2023-03-04T03:43:38;98243.1;;;2.75;100
17950;BME280;9100;48.700;9.316;2023-03-04T03:44:38;98239.70000000001;;;2.76;100
17950;BME280;9100;48.700;9.316;2023-03-04T03:45:38;98243.9;;;2.76;100
17950;BME280;9100;48.700;9.316;2023-03-04T03:46:38;98232.3;;;2.73;100
17950;BME280;9100;48.700;9.316;2023-03-04T03:47:38;98237.3;;;2.75;100
17950;BME280;9100;48.700;9.316;2023-03-04T03:48:05;98233.1;;;2.74;100
17950;BME280;9100;48.700;9.316;2023-03-04T03:48:38;98238.2;;;2.74;100
17950;BME280;9100;48.700;9.316;2023-03-04T03:49:38;98173.5;;;2.28;100
17950;BME280;9100;48.700;9.316;2023-03-04T03:50:38;98243.4;;;2.72;100
17950;BME280;9100;48.700;9.316;2023-03-04T03:51:38;98235.79999999999;;;2.72;100
17950;BME280;9100;48.700;9.316;2023-03-04T03:52:38;98235.79999999999;;;2.72;100
17950;BME280;9100;48.700;9.316;2023-03-04T03:53:05;98231.7;;;2.71;100
17950;BME280;9100;48.700;9.316;2023-03-04T03:53:38;98233.3;;;2.72;100
17950;BME280;9100;48.700;9.316;2023-03-04T03:54:39;98239.09999999999;;;2.73;100
17950;BME280;9100;48.700;9.316;2023-03-04T03:55:38;98232.3;;;2.73;100
17950;BME280;9100;48.700;9.316;2023-03-04T03:56:38;98234.90000000001;;;2.73;100
17950;BME280;9100;48.700;9.316;2023-03-04T03:57:38;98239.09999999999;;;2.73;100
17950;BME280;9100;48.700;9.316;2023-03-04T03:58:05;98233.3;;;2.72;100
17950;BME280;9100;48.700;9.316;2023-03-04T03:58:38;98230.5;;;2.64;100
17950;BME280;9100;48.700;9.316;2023-03-04T03:59:38;98233.3;;;2.72;100
17950;BME280;9100;48.700;9.316;2023-03-04T04:00:38;98238.3;;;2.72;100
17950;BME280;9100;48.700;9.316;2023-03-04T04:01:38;98235.90000000001;;;2.71;100
17950;BME280;9100;48.700;9.316;2023-03-04T04:02:38;98237.59999999999;;;2.7;100
17950;BME280;9100;48.700;9.316;2023-03-04T04:03:05;98239.3;;;2.7;100
17950;BME280;9100;48.700;9.316;2023-03-04T04:03:38;98236.90000000001;;;2.68;100
17950;BME280;9100;48.700;9.316;2023-03-04T04:04:38;98240.20000000001;;;2.7;100
17950;BME280;9100;48.700;9.316;2023-03-04T04:05:38;98240.20000000001;;;2.7;100
17950;BME280;9100;48.700;9.316;2023-03-04T04:06:39;98239.3;;;2.7;100
17950;BME280;9100;48.700;9.316;2023-03-04T04:07:38;98239.5;;;2.68;100
17950;BME280;9100;48.700;9.316;2023-03-04T04:08:05;98240.4;;;2.67;100
17950;BME280;9100;48.700;9.316;2023-03-04T04:08:38;98245.4;;;2.67;100
17950;BME280;9100;48.700;9.316;2023-03-04T04:09:38;98245.4;;;2.67;100
17950;BME280;9100;48.700;9.316;2023-03-04T04:10:38;98237.90000000001;;;2.67;100
17950;BME280;9100;48.700;9.316;2023-03-04T04:11:38;98240.4;;;2.67;100
17950;BME280;9100;48.700;9.316;2023-03-04T04:12:38;98217.3;;;2.5;100
17950;BME280;9100;48.700;9.316;2023-03-04T04:13:05;98215.7;;;2.49;100
17950;BME280;9100;48.700;9.316;2023-03-04T04:13:39;98243.9;;;2.65;100
17950;BME280;9100;48.700;9.316;2023-03-04T04:14:38;98232.3;;;2.62;100
17950;BME280;9100;48.700;9.316;2023-03-04T04:15:38;98239.9;;;2.62;100
17950;BME280;9100;48.700;9.316;2023-03-04T04:16:38;98237.5;;;2.61;100
17950;BME280;9100;48.700;9.316;2023-03-04T04:17:38;98240.3;;;2.58;100
17950;BME280;9100;48.700;9.316;2023-03-04T04:18:06;98241.2;;;2.57;100
17950;BME280;9100;48.700;9.316;2023-03-04T04:18:38;98237.90000000001;;;2.56;100
17950;BME280;9100;48.700;9.316;2023-03-04T04:19:38;98240.4;;;2.56;100
17950;BME280;9100;48.700;9.316;2023-03-04T04:20:38;98237.3;;;2.53;100
17950;BME280;9100;48.700;9.316;2023-03-04T04:21:38;98236.5;;;2.52;100
17950;BME280;9100;48.700;9.316;2023-03-04T04:22:38;98239.09999999999;;;2.51;100
17950;BME280;9100;48.700;9.316;2023-03-04T04:23:05;98243.3;;;2.5;100
17950;BME280;9100;48.700;9.316;2023-03-04T04:23:38;98237.5;;;2.5;100
17950;BME280;9100;48.700;9.316;2023-03-04T04:24:38;98244.2;;;2.51;100
17950;BME280;9100;48.700;9.316;2023-03-04T04:25:38;98240.8;;;2.5;100
17950;BME280;9100;48.700;9.316;2023-03-04T04:26:38;98243.5;;;2.49;100
17950;BME280;9100;48.700;9.316;2023-03-04T04:27:39;98246.1;;;2.47;100
17950;BME280;9100;48.700;9.316;2023-03-04T04:28:05;98246.1;;;2.47;100
17950;BME280;9100;48.700;9.316;2023-03-04T04:28:38;98249.40000000001;;;2.48;100
17950;BME280;9100;48.700;9.316;2023-03-04T04:29:38;98243.6;;;2.47;100
17950;BME280;9100;48.700;9.316;2023-03-04T04:30:38;98249.40000000001;;;2.48;100
17950;BME280;9100;48.700;9.316;2023-03-04T04:31:38;98241.2;;;2.46;100
17950;BME280;9100;48.700;9.316;2023-03-04T04:32:38;98236.3;;;2.42;100
17950;BME280;9100;48.700;9.316;2023-03-04T04:33:05;98242.2;;;2.43;100
17950;BME280;9100;48.700;9.316;2023-03-04T04:33:38;98243.8;;;2.44;100
17950;BME280;9100;48.700;9.316;2023-03-04T04:34:38;98241.4;;;2.42;100
17950;BME280;9100;48.700;9.316;2023-03-04T04:35:38;98247.2;;;2.43;100
17950;BME280;9100;48.700;9.316;2023-03-04T04:36:38;98239;;;2.41;100
17950;BME280;9100;48.700;9.316;2023-03-04T04:37:38;98241.6;;;2.39;100